createdAt,value
2023-06-04T00:01:49.827Z,101802.35
2023-06-04T00:04:18.230Z,101805.37
2023-06-04T00:06:46.687Z,101806.86
2023-06-04T00:09:14.915Z,101805.91
2023-06-04T00:11:43.344Z,101806.61
2023-06-04T00:14:12.490Z,101811.86
2023-06-04T00:16:42.157Z,101816.20
2023-06-04T00:19:10.861Z,101820.47
2023-06-04T00:21:39.346Z,101819.02
2023-06-04T00:24:07.926Z,101818.88
2023-06-04T00:26:36.219Z,101817.36
2023-06-04T00:29:04.709Z,101820.19
2023-06-04T00:31:33.384Z,101825.21
2023-06-04T00:34:01.689Z,101826.59
2023-06-04T00:36:29.905Z,101828.92
2023-06-04T00:38:58.068Z,101830.16
2023-06-04T00:41:26.563Z,101826.20
2023-06-04T00:43:59.408Z,101825.13
2023-06-04T00:46:28.201Z,101825.93
2023-06-04T00:48:57.039Z,101827.52
2023-06-04T00:51:27.254Z,101828.77
2023-06-04T00:53:55.957Z,101828.73
2023-06-04T00:56:24.509Z,101831.16
2023-06-04T00:58:55.168Z,101831.72
2023-06-04T01:01:38.053Z,101831.15
2023-06-04T01:04:13.691Z,101829.54
2023-06-04T01:06:48.891Z,101824.93
2023-06-04T01:09:18.049Z,101824.38
2023-06-04T01:11:46.265Z,101822.34
2023-06-04T01:14:14.933Z,101825.39
2023-06-04T01:17:09.971Z,101820.86
2023-06-04T01:20:06.105Z,101823.27
2023-06-04T01:22:43.421Z,101821.20
2023-06-04T01:25:21.722Z,101823.17
2023-06-04T01:27:53.553Z,101822.83
2023-06-04T01:30:25.177Z,101826.84
2023-06-04T01:32:56.778Z,101822.78
2023-06-04T01:35:28.244Z,101824.83
2023-06-04T01:37:57.467Z,101816.98
2023-06-04T01:40:26.926Z,101818.34
2023-06-04T01:42:56.100Z,101825.51
2023-06-04T01:45:27.744Z,101831.30
2023-06-04T01:47:57.838Z,101834.30
2023-06-04T01:50:26.661Z,101838.89
2023-06-04T01:52:55.529Z,101835.24
2023-06-04T01:55:26.397Z,101829.17
2023-06-04T01:57:54.901Z,101826.83
2023-06-04T02:00:23.372Z,101825.79
2023-06-04T02:02:51.884Z,101827.27
2023-06-04T02:05:20.446Z,101827.52
2023-06-04T02:07:49.382Z,101826.02
2023-06-04T02:10:21.228Z,101831.33
2023-06-04T02:13:00.917Z,101832.69
2023-06-04T02:15:29.436Z,101834.65
2023-06-04T02:18:22.282Z,101833.21
2023-06-04T02:20:51.314Z,101832.66
2023-06-04T02:23:21.188Z,101829.39
2023-06-04T02:25:51.065Z,101826.47
2023-06-04T02:28:19.621Z,101830.20
2023-06-04T02:30:48.555Z,101831.27
2023-06-04T02:33:17.479Z,101833.90
2023-06-04T02:35:46.000Z,101837.09
2023-06-04T02:38:14.591Z,101837.94
2023-06-04T02:40:44.200Z,101843.42
2023-06-04T02:43:13.254Z,101849.39
2023-06-04T02:45:42.223Z,101845.63
2023-06-04T02:48:10.895Z,101846.16
2023-06-04T02:50:40.081Z,101850.15
2023-06-04T02:53:08.566Z,101845.21
2023-06-04T02:55:37.507Z,101848.61
2023-06-04T02:58:05.864Z,101850.58
2023-06-04T03:00:34.405Z,101850.13
2023-06-04T03:03:03.751Z,101849.75
2023-06-04T03:05:33.261Z,101842.73
2023-06-04T03:08:04.101Z,101844.95
2023-06-04T03:10:32.898Z,101846.11
2023-06-04T03:13:01.263Z,101845.73
2023-06-04T03:15:29.960Z,101843.45
2023-06-04T03:17:58.611Z,101842.15
2023-06-04T03:20:26.955Z,101842.11
2023-06-04T03:22:55.425Z,101845.64
2023-06-04T03:25:25.033Z,101845.59
2023-06-04T03:27:53.826Z,101850.70
2023-06-04T03:30:22.349Z,101852.45
2023-06-04T03:33:00.322Z,101853.77
2023-06-04T03:35:28.924Z,101852.67
2023-06-04T03:37:57.089Z,101856.55
2023-06-04T03:40:25.990Z,101860.89
2023-06-04T03:42:54.904Z,101859.39
2023-06-04T03:45:26.547Z,101861.95
2023-06-04T03:47:55.178Z,101861.52
2023-06-04T03:50:24.049Z,101863.88
2023-06-04T03:52:54.673Z,101865.46
2023-06-04T03:55:23.960Z,101865.38
2023-06-04T03:57:52.863Z,101867.98
2023-06-04T04:00:22.473Z,101866.60
2023-06-04T04:02:51.926Z,101867.16
2023-06-04T04:05:24.173Z,101863.48
2023-06-04T04:07:52.751Z,101863.64
2023-06-04T04:10:25.571Z,101867.80
2023-06-04T04:12:56.229Z,101867.77
2023-06-04T04:15:25.092Z,101867.61
2023-06-04T04:17:54.670Z,101871.69
2023-06-04T04:20:23.796Z,101869.24
2023-06-04T04:22:57.492Z,101868.52
2023-06-04T04:25:26.483Z,101871.22
2023-06-04T04:27:57.679Z,101874.66
2023-06-04T04:30:27.073Z,101873.61
2023-06-04T04:32:57.242Z,101869.94
2023-06-04T04:35:30.460Z,101867.05
2023-06-04T04:38:00.643Z,101864.61
2023-06-04T04:40:29.010Z,101863.55
2023-06-04T04:42:59.403Z,101864.55
2023-06-04T04:45:27.887Z,101863.58
2023-06-04T04:47:58.506Z,101861.23
2023-06-04T04:50:27.153Z,101862.29
2023-06-04T04:52:55.816Z,101863.64
2023-06-04T04:55:24.929Z,101861.19
2023-06-04T04:57:53.431Z,101854.95
2023-06-04T05:00:22.392Z,101856.85
2023-06-04T05:02:53.268Z,101854.11
2023-06-04T05:05:21.708Z,101855.40
2023-06-04T05:07:51.118Z,101858.93
2023-06-04T05:10:20.123Z,101858.73
2023-06-04T05:12:53.419Z,101860.74
2023-06-04T05:15:22.210Z,101864.23
2023-06-04T05:17:53.477Z,101865.53
2023-06-04T05:20:22.222Z,101865.83
2023-06-04T05:22:51.251Z,101864.49
2023-06-04T05:25:20.458Z,101866.11
2023-06-04T05:27:50.475Z,101871.45
2023-06-04T05:30:19.573Z,101874.80
2023-06-04T05:32:48.314Z,101875.31
2023-06-04T05:35:17.910Z,101878.13
2023-06-04T05:37:46.946Z,101875.87
2023-06-04T05:40:16.795Z,101873.89
2023-06-04T05:42:46.015Z,101877.54
2023-06-04T05:45:15.154Z,101878.66
2023-06-04T05:47:44.258Z,101877.94
2023-06-04T05:50:12.923Z,101881.90
2023-06-04T05:52:42.407Z,101887.45
2023-06-04T05:55:12.739Z,101889.91
2023-06-04T05:57:41.363Z,101890.42
2023-06-04T06:00:11.767Z,101887.73
2023-06-04T06:02:43.178Z,101889.81
2023-06-04T06:05:17.251Z,101889.02
2023-06-04T06:07:46.231Z,101887.79
2023-06-04T06:10:15.163Z,101885.49
2023-06-04T06:12:43.509Z,101888.06
2023-06-04T06:15:12.225Z,101885.18
2023-06-04T06:17:41.844Z,101887.59
2023-06-04T06:20:11.372Z,101889.79
2023-06-04T06:22:39.596Z,101895.79
2023-06-04T06:25:09.244Z,101894.33
2023-06-04T06:27:42.501Z,101897.32
2023-06-04T06:30:13.360Z,101895.61
2023-06-04T06:32:41.791Z,101892.02
2023-06-04T06:35:10.399Z,101892.19
2023-06-04T06:37:43.218Z,101895.44
2023-06-04T06:40:12.293Z,101897.77
2023-06-04T06:42:40.794Z,101898.48
2023-06-04T06:45:10.163Z,101896.30
2023-06-04T06:47:38.890Z,101898.19
2023-06-04T06:50:09.712Z,101892.84
2023-06-04T06:52:38.554Z,101891.21
2023-06-04T06:55:07.499Z,101891.66
2023-06-04T06:57:35.954Z,101893.13
2023-06-04T07:00:05.917Z,101892.53
2023-06-04T07:02:34.538Z,101884.91
2023-06-04T07:05:03.177Z,101887.22
2023-06-04T07:07:32.489Z,101887.08
2023-06-04T07:10:01.214Z,101892.41
2023-06-04T07:12:29.558Z,101892.67
2023-06-04T07:14:57.983Z,101895.41
2023-06-04T07:17:27.075Z,101893.33
2023-06-04T07:19:55.293Z,101892.20
2023-06-04T07:22:23.694Z,101891.16
2023-06-04T07:24:51.931Z,101887.02
2023-06-04T07:27:20.397Z,101890.87
2023-06-04T07:29:48.705Z,101884.77
2023-06-04T07:32:17.212Z,101879.02
2023-06-04T07:34:46.106Z,101877.92
2023-06-04T07:37:16.667Z,101882.54
2023-06-04T07:39:45.109Z,101882.13
2023-06-04T07:42:14.945Z,101879.88
2023-06-04T07:44:43.617Z,101880.11
2023-06-04T07:47:11.902Z,101884.08
2023-06-04T07:49:50.861Z,101885.80
2023-06-04T07:52:26.569Z,101890.03
2023-06-04T07:54:54.854Z,101886.59
2023-06-04T07:57:23.367Z,101883.86
2023-06-04T07:59:53.051Z,101880.00
2023-06-04T08:02:21.330Z,101879.66
2023-06-04T08:04:49.802Z,101876.52
2023-06-04T08:07:18.421Z,101873.73
2023-06-04T08:09:47.392Z,101867.20
2023-06-04T08:12:17.500Z,101865.39
2023-06-04T08:14:46.456Z,101869.09
2023-06-04T08:17:14.915Z,101866.73
2023-06-04T08:19:43.504Z,101866.66
2023-06-04T08:22:12.768Z,101864.11
2023-06-04T08:24:45.730Z,101862.18
2023-06-04T08:27:14.808Z,101860.36
2023-06-04T08:29:43.733Z,101860.91
2023-06-04T08:32:12.422Z,101860.48
2023-06-04T08:34:40.975Z,101865.20
2023-06-04T08:37:09.769Z,101862.95
2023-06-04T08:39:38.253Z,101866.23
2023-06-04T08:42:08.897Z,101868.73
2023-06-04T08:44:37.382Z,101865.89
2023-06-04T08:47:07.421Z,101864.27
2023-06-04T08:49:40.107Z,101863.89
2023-06-04T08:52:09.017Z,101860.80
2023-06-04T08:54:38.153Z,101858.45
2023-06-04T08:57:07.091Z,101850.11
2023-06-04T08:59:36.732Z,101851.91
2023-06-04T09:02:05.612Z,101851.77
2023-06-04T09:04:34.131Z,101845.21
2023-06-04T09:07:03.691Z,101841.94
2023-06-04T09:09:38.369Z,101840.98
2023-06-04T09:12:13.178Z,101833.80
2023-06-04T09:14:41.842Z,101829.80
2023-06-04T09:17:10.203Z,101826.73
2023-06-04T09:19:38.606Z,101831.73
2023-06-04T09:22:07.401Z,101832.70
2023-06-04T09:24:54.102Z,101831.79
2023-06-04T09:27:23.621Z,101826.42
2023-06-04T09:29:52.491Z,101822.46
2023-06-04T09:32:28.355Z,101819.02
2023-06-04T09:35:09.894Z,101820.80
2023-06-04T09:37:38.650Z,101816.77
2023-06-04T09:40:11.050Z,101814.23
2023-06-04T09:42:56.380Z,101814.46
2023-06-04T09:45:30.056Z,101813.05
2023-06-04T09:47:59.318Z,101811.52
2023-06-04T09:50:40.627Z,101811.30
2023-06-04T09:53:35.287Z,101810.20
2023-06-04T09:56:05.063Z,101805.86
2023-06-04T09:58:34.241Z,101800.75
2023-06-04T10:01:06.110Z,101798.35
2023-06-04T10:03:37.067Z,101795.95
2023-06-04T10:06:07.120Z,101793.80
2023-06-04T10:08:35.828Z,101787.52
2023-06-04T10:11:05.075Z,101791.91
2023-06-04T10:14:01.498Z,101786.06
2023-06-04T10:16:35.009Z,101783.85
2023-06-04T10:19:06.190Z,101785.97
2023-06-04T10:21:38.979Z,101780.20
2023-06-04T10:24:08.716Z,101774.17
2023-06-04T10:26:38.325Z,101770.41
2023-06-04T10:29:07.535Z,101773.37
2023-06-04T10:31:38.487Z,101767.77
2023-06-04T10:34:07.035Z,101768.45
2023-06-04T10:36:44.906Z,101767.97
2023-06-04T10:39:13.774Z,101764.13
2023-06-04T10:41:42.299Z,101760.67
2023-06-04T10:44:10.999Z,101754.48
2023-06-04T10:46:44.580Z,101749.23
2023-06-04T10:49:13.602Z,101752.83
2023-06-04T10:51:42.315Z,101754.52
2023-06-04T10:54:10.699Z,101747.56
2023-06-04T10:56:39.358Z,101748.28
2023-06-04T10:59:18.889Z,101751.21
2023-06-04T11:01:47.749Z,101749.19
2023-06-04T11:04:27.151Z,101749.90
2023-06-04T11:07:10.228Z,101748.67
2023-06-04T11:09:51.476Z,101745.47
2023-06-04T11:12:20.028Z,101743.64
2023-06-04T11:14:58.949Z,101735.44
2023-06-04T11:17:27.644Z,101740.91
2023-06-04T11:19:56.874Z,101741.86
2023-06-04T11:22:26.041Z,101740.17
2023-06-04T11:25:01.352Z,101733.17
2023-06-04T11:27:37.124Z,101728.96
2023-06-04T11:30:09.721Z,101726.06
2023-06-04T11:32:38.080Z,101723.62
2023-06-04T11:35:08.380Z,101721.61
2023-06-04T11:37:36.919Z,101722.89
2023-06-04T11:40:18.049Z,101717.58
2023-06-04T11:42:48.944Z,101718.83
2023-06-04T11:45:24.209Z,101716.77
2023-06-04T11:47:59.172Z,101711.83
2023-06-04T11:50:30.244Z,101705.95
2023-06-04T11:52:59.407Z,101710.80
2023-06-04T11:55:28.161Z,101709.41
2023-06-04T11:57:56.778Z,101705.98
2023-06-04T12:00:25.757Z,101705.89
2023-06-04T12:02:56.253Z,101706.81
2023-06-04T12:05:30.882Z,101710.17
2023-06-04T12:08:08.723Z,101710.48
2023-06-04T12:10:44.661Z,101700.86
2023-06-04T12:13:13.135Z,101704.63
2023-06-04T12:15:41.544Z,101703.71
2023-06-04T12:18:11.006Z,101700.17
2023-06-04T12:20:42.688Z,101698.48
2023-06-04T12:23:21.987Z,101699.85
2023-06-04T12:25:53.295Z,101693.03
2023-06-04T12:28:21.700Z,101688.96
2023-06-04T12:30:50.896Z,101687.05
2023-06-04T12:33:19.163Z,101684.70
2023-06-04T12:35:47.551Z,101685.36
2023-06-04T12:38:16.033Z,101687.20
2023-06-04T12:40:44.319Z,101680.13
2023-06-04T12:43:12.728Z,101678.86
2023-06-04T12:45:41.328Z,101678.16
2023-06-04T12:48:09.933Z,101678.30
2023-06-04T12:50:38.488Z,101674.64
2023-06-04T12:53:06.909Z,101674.04
2023-06-04T12:55:35.093Z,101673.21
2023-06-04T12:58:03.323Z,101674.73
2023-06-04T13:00:31.692Z,101678.67
2023-06-04T13:03:00.210Z,101680.61
2023-06-04T13:05:28.888Z,101684.22
2023-06-04T13:07:57.877Z,101683.06
2023-06-04T13:10:26.359Z,101678.92
2023-06-04T13:12:54.855Z,101677.27
2023-06-04T13:15:23.573Z,101675.98
2023-06-04T13:17:51.976Z,101674.69
2023-06-04T13:20:20.162Z,101672.31
2023-06-04T13:22:48.608Z,101669.41
2023-06-04T13:25:17.186Z,101665.17
2023-06-04T13:27:46.168Z,101664.63
2023-06-04T13:30:15.722Z,101655.23
2023-06-04T13:32:44.397Z,101658.11
2023-06-04T13:35:12.865Z,101659.66
2023-06-04T13:37:41.350Z,101658.89
2023-06-04T13:40:10.185Z,101656.02
2023-06-04T13:42:38.532Z,101650.97
2023-06-04T13:45:07.781Z,101649.71
2023-06-04T13:47:36.759Z,101647.95
2023-06-04T13:50:05.918Z,101648.70
2023-06-04T13:52:34.525Z,101642.65
2023-06-04T13:55:02.660Z,101646.97
2023-06-04T13:57:31.018Z,101644.47
2023-06-04T13:59:59.226Z,101640.77
2023-06-04T14:02:27.681Z,101634.55
2023-06-04T14:04:56.353Z,101637.00
2023-06-04T14:07:25.040Z,101637.27
2023-06-04T14:09:56.100Z,101633.88
2023-06-04T14:12:25.213Z,101629.23
2023-06-04T14:14:53.665Z,101624.29
2023-06-04T14:17:22.199Z,101623.45
2023-06-04T14:19:50.760Z,101618.86
2023-06-04T14:22:19.252Z,101621.63
2023-06-04T14:24:47.528Z,101626.35
2023-06-04T14:27:16.422Z,101621.79
2023-06-04T14:29:45.516Z,101621.10
2023-06-04T14:32:14.007Z,101615.60
2023-06-04T14:34:42.253Z,101611.50
2023-06-04T14:37:10.405Z,101610.59
2023-06-04T14:39:38.648Z,101609.43
2023-06-04T14:42:07.139Z,101608.60
2023-06-04T14:44:35.906Z,101604.12
2023-06-04T14:47:05.645Z,101602.18
2023-06-04T14:49:34.128Z,101606.77
2023-06-04T14:52:02.427Z,101607.75
2023-06-04T14:54:31.175Z,101603.80
2023-06-04T14:56:59.518Z,101601.11
2023-06-04T14:59:28.076Z,101591.84
2023-06-04T15:01:56.771Z,101591.15
2023-06-04T15:04:25.249Z,101590.87
2023-06-04T15:06:53.564Z,101587.48
2023-06-04T15:09:22.129Z,101580.27
2023-06-04T15:11:51.032Z,101576.59
2023-06-04T15:14:19.405Z,101572.05
2023-06-04T15:16:47.729Z,101570.55
2023-06-04T15:19:15.986Z,101565.05
2023-06-04T15:21:45.077Z,101564.96
2023-06-04T15:24:13.760Z,101560.58
2023-06-04T15:26:42.381Z,101561.44
2023-06-04T15:29:11.451Z,101561.46
2023-06-04T15:31:39.996Z,101559.23
2023-06-04T15:34:08.631Z,101557.89
2023-06-04T15:36:38.596Z,101553.63
2023-06-04T15:39:06.871Z,101552.73
2023-06-04T15:41:35.317Z,101548.93
2023-06-04T15:44:03.704Z,101550.75
2023-06-04T15:46:32.188Z,101544.26
2023-06-04T15:49:06.488Z,101543.30
2023-06-04T15:51:36.815Z,101545.39
2023-06-04T15:54:05.765Z,101538.02
2023-06-04T15:56:34.199Z,101542.69
2023-06-04T15:59:02.949Z,101540.76
2023-06-04T16:01:32.149Z,101538.08
2023-06-04T16:04:00.582Z,101535.54
2023-06-04T16:06:28.808Z,101541.41
2023-06-04T16:08:57.298Z,101539.24
2023-06-04T16:11:27.083Z,101536.58
2023-06-04T16:13:55.405Z,101534.08
2023-06-04T16:16:24.578Z,101527.93
2023-06-04T16:18:53.058Z,101529.69
2023-06-04T16:21:22.258Z,101528.94
2023-06-04T16:23:50.718Z,101532.76
2023-06-04T16:26:19.403Z,101531.31
2023-06-04T16:28:47.928Z,101535.88
2023-06-04T16:31:16.230Z,101540.27
2023-06-04T16:33:45.522Z,101533.77
2023-06-04T16:36:14.056Z,101536.77
2023-06-04T16:38:42.690Z,101532.61
2023-06-04T16:41:11.180Z,101534.92
2023-06-04T16:43:39.438Z,101529.23
2023-06-04T16:46:08.037Z,101535.29
2023-06-04T16:48:39.372Z,101537.69
2023-06-04T16:51:08.305Z,101534.85
2023-06-04T16:53:36.628Z,101534.41
2023-06-04T16:56:05.325Z,101534.88
2023-06-04T16:58:35.958Z,101537.84
2023-06-04T17:01:04.300Z,101535.40
2023-06-04T17:03:32.855Z,101536.10
2023-06-04T17:06:01.431Z,101539.84
2023-06-04T17:08:29.969Z,101538.10
2023-06-04T17:10:58.578Z,101539.36
2023-06-04T17:13:26.931Z,101540.45
2023-06-04T17:15:55.422Z,101543.38
2023-06-04T17:18:23.919Z,101543.39
2023-06-04T17:20:52.802Z,101546.09
2023-06-04T17:23:26.019Z,101546.61
2023-06-04T17:25:55.008Z,101549.30
2023-06-04T17:28:23.718Z,101545.27
2023-06-04T17:30:52.162Z,101550.39
2023-06-04T17:33:20.654Z,101548.94
2023-06-04T17:35:48.763Z,101549.63
2023-06-04T17:38:17.014Z,101545.39
2023-06-04T17:40:45.539Z,101545.11
2023-06-04T17:43:13.816Z,101541.88
2023-06-04T17:45:42.999Z,101543.14
2023-06-04T17:48:11.729Z,101544.16
2023-06-04T17:50:40.871Z,101542.73
2023-06-04T17:53:09.372Z,101539.73
2023-06-04T17:55:38.093Z,101543.45
2023-06-04T17:58:06.584Z,101544.90
2023-06-04T18:00:34.941Z,101547.19
2023-06-04T18:03:03.972Z,101550.33
2023-06-04T18:05:32.485Z,101556.83
2023-06-04T18:08:01.117Z,101561.70
2023-06-04T18:10:29.628Z,101568.73
2023-06-04T18:12:58.106Z,101567.33
2023-06-04T18:15:26.773Z,101567.24
2023-06-04T18:17:55.102Z,101573.70
2023-06-04T18:20:24.158Z,101579.34
2023-06-04T18:22:52.836Z,101585.30
2023-06-04T18:25:22.885Z,101586.46
2023-06-04T18:27:51.806Z,101592.75
2023-06-04T18:30:20.145Z,101600.77
2023-06-04T18:32:49.734Z,101597.21
2023-06-04T18:35:18.169Z,101600.73
2023-06-04T18:37:46.428Z,101601.98
2023-06-04T18:40:15.634Z,101607.61
2023-06-04T18:42:45.147Z,101606.03
2023-06-04T18:45:15.684Z,101612.95
2023-06-04T18:47:44.624Z,101611.95
2023-06-04T18:50:13.096Z,101611.02
2023-06-04T18:52:41.489Z,101615.66
2023-06-04T18:55:12.221Z,101612.19
2023-06-04T18:57:40.433Z,101613.41
2023-06-04T19:00:14.727Z,101613.88
2023-06-04T19:02:44.569Z,101615.54
2023-06-04T19:05:13.643Z,101615.14
2023-06-04T19:07:41.997Z,101618.36
2023-06-04T19:10:12.515Z,101619.49
2023-06-04T19:12:43.480Z,101622.96
2023-06-04T19:15:15.231Z,101626.38
2023-06-04T19:17:44.523Z,101625.33
2023-06-04T19:20:13.815Z,101623.07
2023-06-04T19:22:42.733Z,101626.60
2023-06-04T19:25:11.223Z,101624.51
2023-06-04T19:27:39.506Z,101630.95
2023-06-04T19:30:08.787Z,101628.66
2023-06-04T19:32:38.055Z,101623.45
2023-06-04T19:35:07.074Z,101627.67
2023-06-04T19:37:35.860Z,101630.94
2023-06-04T19:40:06.001Z,101628.92
2023-06-04T19:42:34.143Z,101629.67
2023-06-04T19:45:02.494Z,101628.20
2023-06-04T19:47:31.456Z,101632.63
2023-06-04T19:49:59.885Z,101630.64
2023-06-04T19:52:28.573Z,101634.60
2023-06-04T19:54:59.807Z,101642.83
2023-06-04T19:57:29.424Z,101645.52
2023-06-04T19:59:58.016Z,101646.15
2023-06-04T20:02:26.542Z,101643.14
2023-06-04T20:04:55.020Z,101646.48
2023-06-04T20:07:25.835Z,101642.45
2023-06-04T20:09:54.225Z,101643.81
2023-06-04T20:12:23.326Z,101640.84
2023-06-04T20:14:51.725Z,101646.69
2023-06-04T20:17:20.300Z,101641.05
2023-06-04T20:19:48.681Z,101642.13
2023-06-04T20:22:17.134Z,101646.59
2023-06-04T20:24:46.376Z,101642.06
2023-06-04T20:27:18.008Z,101647.33
2023-06-04T20:29:46.880Z,101645.20
2023-06-04T20:32:15.716Z,101643.81
2023-06-04T20:34:43.995Z,101642.72
2023-06-04T20:37:12.379Z,101642.40
2023-06-04T20:39:42.210Z,101647.48
2023-06-04T20:42:10.479Z,101644.73
2023-06-04T20:44:38.784Z,101644.88
2023-06-04T20:47:08.170Z,101637.38
2023-06-04T20:49:36.880Z,101633.17
2023-06-04T20:52:05.768Z,101633.39
2023-06-04T20:54:34.246Z,101637.09
2023-06-04T20:57:02.739Z,101641.99
2023-06-04T20:59:31.353Z,101643.75
2023-06-04T21:02:00.877Z,101647.55
2023-06-04T21:04:29.841Z,101654.14
2023-06-04T21:06:58.730Z,101657.54
2023-06-04T21:09:27.015Z,101657.06
2023-06-04T21:11:55.188Z,101653.20
2023-06-04T21:14:23.684Z,101651.23
2023-06-04T21:16:51.965Z,101643.24
2023-06-04T21:19:20.167Z,101645.85
2023-06-04T21:21:48.421Z,101644.21
2023-06-04T21:24:18.617Z,101643.05
2023-06-04T21:26:46.848Z,101645.97
2023-06-04T21:29:15.211Z,101645.70
2023-06-04T21:31:43.715Z,101646.90
2023-06-04T21:34:12.009Z,101651.64
2023-06-04T21:36:40.670Z,101647.83
2023-06-04T21:39:09.474Z,101647.04
2023-06-04T21:41:37.879Z,101647.81
2023-06-04T21:44:07.167Z,101642.54
2023-06-04T21:46:36.778Z,101644.75
2023-06-04T21:49:05.170Z,101641.84
2023-06-04T21:51:33.752Z,101643.86
2023-06-04T21:54:02.125Z,101648.45
2023-06-04T21:56:30.425Z,101653.77
2023-06-04T21:58:59.521Z,101656.52
2023-06-04T22:01:28.123Z,101652.83
2023-06-04T22:03:56.647Z,101649.15
2023-06-04T22:06:25.060Z,101650.65
2023-06-04T22:08:53.526Z,101647.92
2023-06-04T22:11:22.904Z,101645.33
2023-06-04T22:13:51.143Z,101650.46
2023-06-04T22:16:19.411Z,101651.52
2023-06-04T22:18:52.974Z,101654.42
2023-06-04T22:21:22.557Z,101651.25
2023-06-04T22:23:51.474Z,101651.00
2023-06-04T22:26:32.916Z,101647.97
2023-06-04T22:29:06.633Z,101645.11
2023-06-04T22:31:35.486Z,101639.83
2023-06-04T22:34:06.280Z,101641.03
2023-06-04T22:36:34.625Z,101642.87
2023-06-04T22:39:03.012Z,101639.91
2023-06-04T22:41:31.516Z,101640.45
2023-06-04T22:44:00.441Z,101642.42
2023-06-04T22:46:29.495Z,101643.15
2023-06-04T22:48:57.808Z,101638.08
2023-06-04T22:51:26.576Z,101637.05
2023-06-04T22:53:56.410Z,101636.73
2023-06-04T22:56:24.910Z,101635.55
2023-06-04T22:58:53.280Z,101639.98
2023-06-04T23:01:21.593Z,101636.67
2023-06-04T23:03:50.011Z,101630.75
2023-06-04T23:06:18.843Z,101631.21
2023-06-04T23:08:47.452Z,101629.54
2023-06-04T23:11:15.917Z,101631.59
2023-06-04T23:13:46.389Z,101637.51
2023-06-04T23:16:15.204Z,101639.20
2023-06-04T23:18:43.626Z,101636.70
2023-06-04T23:21:11.942Z,101637.89
2023-06-04T23:23:40.528Z,101628.77
2023-06-04T23:26:09.102Z,101630.23
2023-06-04T23:28:37.450Z,101634.81
2023-06-04T23:31:06.053Z,101635.29
2023-06-04T23:33:34.276Z,101636.78
2023-06-04T23:36:02.640Z,101636.71
2023-06-04T23:38:30.992Z,101639.00
2023-06-04T23:40:59.116Z,101642.15
2023-06-04T23:43:27.571Z,101638.98
2023-06-04T23:45:56.173Z,101639.03
2023-06-04T23:48:24.751Z,101639.63
2023-06-04T23:50:53.334Z,101643.41
2023-06-04T23:53:22.656Z,101645.29
2023-06-04T23:55:50.962Z,101643.29
2023-06-04T23:58:19.618Z,101638.27
